Time;durP1;ratioP1;P1;durP2;ratioP2;P2;SDS_P1;SDS_P2;PMS_P1;PMS_P2;Temp;Humidity;BMP_temperature;BMP_pressure;BME280_temperature;BME280_humidity;BME280_pressure;Samples;Min_cycle;Max_cycle;Signal;HPM_P1;HPM_P2
2022/09/10 00:01:58;;;;;;;6.68;2.58;;;14.50;99.90;;;-144.05;87.33;125687.94;4976117;28;20057;-88
2022/09/10 00:04:24;;;;;;;5.22;2.47;;;14.40;99.90;;;-144.05;86.97;125687.94;4977215;28;20027;-88
2022/09/10 00:06:50;;;;;;;5.43;2.15;;;14.40;99.90;;;-144.05;86.77;125687.94;4975944;28;20027;-90
2022/09/10 00:09:16;;;;;;;9.75;3.10;;;14.40;99.90;;;-144.05;87.06;125687.94;4991604;28;20034;-88
2022/09/10 00:11:44;;;;;;;4.38;2.50;;;14.30;99.90;;;-144.05;87.07;125687.94;4975644;28;20438;-89
2022/09/10 00:14:19;;;;;;;6.15;2.45;;;14.40;99.90;;;-144.05;87.27;125687.94;4975394;28;20041;-89
2022/09/10 00:16:46;;;;;;;10.45;2.53;;;14.40;99.90;;;-144.05;87.45;125687.94;4975868;28;20027;-87
2022/09/10 00:19:13;;;;;;;5.95;2.90;;;14.40;99.90;;;-144.05;87.74;125687.94;4975403;28;20402;-88
2022/09/10 00:21:39;;;;;;;5.88;2.67;;;14.50;99.90;;;-144.05;87.43;125687.94;4975211;28;20173;-89
2022/09/10 00:24:06;;;;;;;5.28;2.35;;;14.50;99.90;;;-144.05;86.83;125687.94;4959118;28;20196;-87
2022/09/10 00:26:39;;;;;;;5.78;2.88;;;14.60;99.90;;;-144.05;86.69;125687.94;4975144;28;20031;-89
2022/09/10 00:29:10;;;;;;;5.80;2.40;;;14.60;99.90;;;-144.05;85.87;125687.94;4975006;28;20035;-88
2022/09/10 00:31:37;;;;;;;6.18;2.90;;;14.60;99.90;;;-144.05;86.09;125687.94;4974804;28;20077;-87
2022/09/10 00:34:05;;;;;;;10.40;2.88;;;14.60;99.90;;;-144.05;86.18;125687.94;4974513;28;20034;-88
2022/09/10 00:36:39;;;;;;;4.10;2.60;;;14.60;99.90;;;-144.05;86.20;125687.94;4974774;28;20034;-90
2022/09/10 00:39:14;;;;;;;6.65;2.67;;;14.60;99.90;;;-144.05;86.33;125687.94;4974116;28;20058;-90
2022/09/10 00:41:44;;;;;;;8.53;2.50;;;14.60;99.90;;;-144.05;86.68;125687.94;4976798;28;20038;-89
2022/09/10 00:44:40;;;;;;;6.28;2.38;;;14.60;99.90;;;-144.05;86.48;125687.94;4975601;28;20070;-87
2022/09/10 00:47:34;;;;;;;7.60;2.75;;;14.50;99.90;;;-144.05;86.67;125687.94;4975772;28;20034;-88
2022/09/10 00:50:22;;;;;;;8.75;2.55;;;14.50;99.90;;;-144.05;86.88;125687.94;4975766;28;20471;-88
2022/09/10 00:52:55;;;;;;;9.35;3.08;;;14.50;99.90;;;-144.05;87.33;125687.94;4975899;28;20089;-89
2022/09/10 00:55:23;;;;;;;6.40;3.00;;;14.50;99.90;;;-144.05;86.74;125687.94;4977137;28;20117;-87
2022/09/10 00:57:57;;;;;;;4.43;2.53;;;14.50;99.90;;;-144.05;86.61;125687.94;4978141;28;20026;-86
2022/09/10 01:00:23;;;;;;;6.90;2.58;;;14.50;99.90;;;-144.05;86.59;125687.94;4978177;28;20037;-88
2022/09/10 01:02:50;;;;;;;8.55;2.72;;;14.40;99.90;;;-144.05;86.74;125687.94;4975421;28;20058;-87
2022/09/10 01:05:18;;;;;;;6.82;2.80;;;14.50;99.90;;;-144.05;86.55;125687.94;4975796;28;20031;-88
2022/09/10 01:07:44;;;;;;;4.50;2.53;;;14.50;99.90;;;-144.05;86.69;125687.94;4975797;28;20026;-85
2022/09/10 01:10:22;;;;;;;7.97;3.50;;;14.50;99.90;;;-144.05;86.87;125687.94;4975644;28;20470;-86
2022/09/10 01:13:28;;;;;;;6.90;2.75;;;14.50;99.90;;;-144.05;86.78;125687.94;4975614;28;20027;-86
2022/09/10 01:16:15;;;;;;;5.13;2.65;;;14.50;99.90;;;-144.05;86.85;125687.94;4981449;28;20027;-88
2022/09/10 01:19:20;;;;;;;6.35;2.53;;;14.50;99.90;;;-144.05;86.65;125687.94;4976964;28;20038;-88
2022/09/10 01:22:31;;;;;;;9.65;2.75;;;14.50;99.90;;;-144.05;86.57;125687.94;4977846;28;20031;-89
2022/09/10 01:25:55;;;;;;;5.35;2.38;;;14.50;99.90;;;-144.05;85.92;125687.94;4977482;28;20216;-89
2022/09/10 01:28:44;;;;;;;5.68;2.85;;;14.40;99.90;;;-144.05;86.12;125687.94;4977459;28;20026;-90
2022/09/10 01:32:13;;;;;;;8.88;2.95;;;14.40;99.90;;;-144.05;85.85;125687.94;4977252;28;20102;-89
2022/09/10 01:34:55;;;;;;;7.47;2.97;;;14.40;99.90;;;-144.05;86.51;125687.94;4950070;28;20042;-89
2022/09/10 01:37:33;;;;;;;7.38;2.47;;;14.40;99.90;;;-144.05;86.14;125687.94;4977207;28;20570;-89
2022/09/10 01:40:02;;;;;;;6.20;2.25;;;14.40;99.90;;;-144.05;86.40;125687.94;4976399;28;20133;-89
2022/09/10 01:42:31;;;;;;;6.13;2.40;;;14.30;99.90;;;-144.05;86.35;125687.94;4985450;28;20114;-88
2022/09/10 01:44:58;;;;;;;6.90;2.90;;;14.30;99.90;;;-144.05;86.36;125687.94;5002253;28;20058;-88
2022/09/10 01:48:11;;;;;;;5.25;2.55;;;14.30;99.90;;;-144.05;86.47;125687.94;4985887;28;20030;-89
2022/09/10 01:51:26;;;;;;;10.55;2.70;;;14.30;99.90;;;-144.05;86.30;125687.94;4922315;28;20045;-88
2022/09/10 01:54:12;;;;;;;8.75;2.90;;;14.30;99.90;;;-144.05;86.01;125687.94;4975252;28;20085;-86
2022/09/10 01:57:32;;;;;;;6.07;2.35;;;14.30;99.90;;;-144.05;85.96;125687.94;4975992;28;20033;-89
2022/09/10 02:00:12;;;;;;;4.65;2.70;;;14.30;99.90;;;-144.05;85.76;125687.94;4948606;28;20041;-89
2022/09/10 02:02:54;;;;;;;9.80;2.60;;;14.20;99.90;;;-144.05;86.54;125687.94;4976228;28;20038;-88
2022/09/10 02:05:23;;;;;;;5.10;2.78;;;14.20;99.90;;;-144.05;86.60;125687.94;4975743;28;20114;-86
2022/09/10 02:08:00;;;;;;;12.27;3.22;;;14.20;99.90;;;-144.05;86.89;125687.94;4975430;28;20031;-89
2022/09/10 02:10:27;;;;;;;15.23;2.80;;;14.10;99.90;;;-144.05;86.26;125687.94;4977640;28;20123;-89
2022/09/10 02:12:54;;;;;;;6.10;2.60;;;14.10;99.90;;;-144.05;86.55;125687.94;4977086;28;20031;-88
2022/09/10 02:15:25;;;;;;;6.07;2.38;;;14.10;99.90;;;-144.05;86.46;125687.94;4974298;28;20140;-86
2022/09/10 02:17:52;;;;;;;6.18;2.40;;;14.10;99.90;;;-144.05;86.48;125687.94;4991439;28;20031;-88
2022/09/10 02:20:20;;;;;;;7.05;2.80;;;14.10;99.90;;;-144.05;86.49;125687.94;4976510;28;20031;-87
2022/09/10 02:22:58;;;;;;;6.35;2.70;;;14.00;99.90;;;-144.05;86.87;125687.94;4976592;28;20166;-90
2022/09/10 02:25:32;;;;;;;10.07;3.10;;;14.00;99.90;;;-144.05;86.70;125687.94;4989273;28;20053;-87
2022/09/10 02:27:58;;;;;;;6.22;2.95;;;14.10;99.90;;;-144.05;87.28;125687.94;5010099;28;20019;-85
2022/09/10 02:30:24;;;;;;;6.38;2.78;;;14.00;99.90;;;-144.05;87.10;125687.94;4995303;28;20066;-88
2022/09/10 02:32:50;;;;;;;10.95;3.00;;;14.00;99.90;;;-144.05;87.52;125687.94;4994258;28;20031;-90
2022/09/10 02:35:16;;;;;;;5.93;2.60;;;14.00;99.90;;;-144.05;87.29;125687.94;4977989;28;20031;-89
2022/09/10 02:37:42;;;;;;;7.03;2.42;;;14.10;99.90;;;-144.05;87.27;125687.94;4973891;28;20023;-88
2022/09/10 02:40:10;;;;;;;4.53;2.30;;;14.10;99.90;;;-144.05;87.07;125687.94;4974283;28;20023;-88
2022/09/10 02:42:37;;;;;;;4.85;2.40;;;14.20;99.90;;;-144.05;86.58;125687.94;4974388;28;20050;-89
2022/09/10 02:45:04;;;;;;;5.40;2.08;;;14.20;99.90;;;-144.05;86.95;125687.94;4975806;28;20023;-85
2022/09/10 02:47:30;;;;;;;6.20;2.00;;;14.30;99.90;;;-144.05;86.60;125687.94;4974152;28;20434;-88
2022/09/10 02:49:56;;;;;;;5.00;1.77;;;14.30;99.90;;;-144.05;86.65;125687.94;4974064;28;20027;-88
2022/09/10 02:52:22;;;;;;;7.10;1.73;;;14.30;99.90;;;-144.05;86.47;125687.94;4974514;28;20054;-91
2022/09/10 02:54:49;;;;;;;5.68;2.00;;;14.40;99.90;;;-144.05;86.46;125687.94;4976361;28;20117;-88
2022/09/10 02:57:15;;;;;;;3.13;1.90;;;14.40;99.90;;;-144.05;86.74;125687.94;4974702;28;20479;-85
2022/09/10 02:59:41;;;;;;;5.40;1.80;;;14.40;99.90;;;-144.05;86.55;125687.94;4974831;28;20035;-89
2022/09/10 03:02:06;;;;;;;6.53;1.80;;;14.50;99.90;;;-144.05;86.54;125687.94;4978451;28;20089;-89
2022/09/10 03:04:32;;;;;;;6.38;1.92;;;14.40;99.90;;;-144.05;86.67;125687.94;4978530;28;20454;-88
2022/09/10 03:06:58;;;;;;;4.35;1.70;;;14.40;99.90;;;-144.05;86.62;125687.94;4978258;28;20058;-88
2022/09/10 03:09:27;;;;;;;6.53;2.20;;;14.40;99.90;;;-144.05;86.60;125687.94;4978835;28;20038;-85
2022/09/10 03:11:53;;;;;;;6.53;1.95;;;14.40;99.90;;;-144.05;86.93;125687.94;4983058;28;20130;-86
2022/09/10 03:14:21;;;;;;;3.70;2.03;;;14.50;99.90;;;-144.05;86.69;125687.94;4978471;28;20022;-87
2022/09/10 03:16:48;;;;;;;2.95;2.22;;;14.40;99.90;;;-144.05;86.78;125687.94;4978233;28;20049;-87
2022/09/10 03:19:16;;;;;;;4.95;2.30;;;14.50;99.90;;;-144.05;86.75;125687.94;4978357;28;20599;-88
2022/09/10 03:21:42;;;;;;;3.63;2.10;;;14.50;99.90;;;-144.05;86.75;125687.94;4979624;28;20033;-86
2022/09/10 03:24:09;;;;;;;4.60;1.90;;;14.50;99.90;;;-144.05;86.87;125687.94;4978394;28;20027;-87
2022/09/10 03:26:35;;;;;;;4.15;2.35;;;14.50;99.90;;;-144.05;87.09;125687.94;4978806;28;20026;-87
2022/09/10 03:29:02;;;;;;;6.07;2.03;;;14.40;99.90;;;-144.05;86.99;125687.94;4979080;28;20093;-89
2022/09/10 03:31:28;;;;;;;5.93;2.47;;;14.50;99.90;;;-144.05;87.00;125687.94;4979494;28;20557;-89
2022/09/10 03:33:54;;;;;;;10.38;2.67;;;14.50;99.90;;;-144.05;86.92;125687.94;4979538;28;20039;-89
2022/09/10 03:36:21;;;;;;;8.07;2.53;;;14.50;99.90;;;-144.05;86.92;125687.94;4979521;28;20031;-88
2022/09/10 03:38:47;;;;;;;5.53;2.80;;;14.50;99.90;;;-144.05;86.52;125687.94;4976713;28;20092;-88
2022/09/10 03:41:14;;;;;;;5.47;2.47;;;14.50;99.90;;;-144.05;86.34;125687.94;4976322;28;20038;-88
2022/09/10 03:43:40;;;;;;;3.80;2.55;;;14.50;99.90;;;-144.05;86.66;125687.94;4976345;28;20085;-87
2022/09/10 03:46:06;;;;;;;6.53;3.58;;;14.50;99.90;;;-144.05;86.74;125687.94;4976689;28;20027;-89
2022/09/10 03:48:32;;;;;;;6.07;3.40;;;14.50;99.90;;;-144.05;86.89;125687.94;4976556;28;20081;-86
2022/09/10 03:50:58;;;;;;;6.90;3.72;;;14.50;99.90;;;-144.05;87.34;125687.94;4977002;28;20037;-88
2022/09/10 03:53:24;;;;;;;6.22;3.33;;;14.50;99.90;;;-144.05;87.43;125687.94;4976727;28;20132;-87
2022/09/10 03:55:51;;;;;;;9.10;4.15;;;14.50;99.90;;;-144.05;87.05;125687.94;4978174;28;20483;-88
2022/09/10 03:58:18;;;;;;;6.72;4.00;;;14.60;99.90;;;-144.05;87.27;125687.94;4992944;28;20050;-88
2022/09/10 04:00:45;;;;;;;6.43;4.65;;;14.60;99.90;;;-144.05;87.00;125687.94;4976683;28;20117;-88
2022/09/10 04:03:12;;;;;;;8.77;5.07;;;14.50;99.90;;;-144.05;87.04;125687.94;4977285;28;20034;-86
2022/09/10 04:05:42;;;;;;;11.20;5.90;;;14.60;99.90;;;-144.05;87.63;125687.94;4978341;28;20545;-88
2022/09/10 04:08:11;;;;;;;11.50;5.88;;;14.60;99.90;;;-144.05;87.23;125687.94;4976851;28;20490;-89
2022/09/10 04:10:39;;;;;;;9.38;5.90;;;14.60;99.90;;;-144.05;87.55;125687.94;4977495;28;20039;-86
2022/09/10 04:13:05;;;;;;;10.57;5.78;;;14.60;99.90;;;-144.05;87.48;125687.94;4976898;28;20085;-86
2022/09/10 04:15:32;;;;;;;9.30;5.43;;;14.60;99.90;;;-144.05;87.83;125687.94;4979041;28;20027;-87
2022/09/10 04:17:58;;;;;;;6.35;4.93;;;14.60;99.90;;;-144.05;87.67;125687.94;4978199;28;20545;-89
2022/09/10 04:20:25;;;;;;;9.88;5.18;;;14.60;99.90;;;-144.05;87.58;125687.94;4980140;28;20514;-88
2022/09/10 04:22:52;;;;;;;9.43;5.00;;;14.60;99.90;;;-144.05;87.69;125687.94;4978403;28;20105;-87
2022/09/10 04:25:19;;;;;;;11.80;4.78;;;14.50;99.90;;;-144.05;87.49;125687.94;4979122;28;20046;-87
2022/09/10 04:27:47;;;;;;;10.02;4.80;;;14.60;99.90;;;-144.05;87.38;125687.94;4977755;28;20142;-87
2022/09/10 04:30:14;;;;;;;8.05;4.38;;;14.50;99.90;;;-144.05;87.92;125687.94;4976868;28;20228;-87
2022/09/10 04:32:41;;;;;;;8.05;4.55;;;14.50;99.90;;;-144.05;88.45;125687.94;4977946;28;20031;-89
2022/09/10 04:35:08;;;;;;;8.38;4.68;;;14.60;99.90;;;-144.05;88.00;125687.94;4977423;28;20317;-89
2022/09/10 04:37:34;;;;;;;9.02;4.68;;;14.50;99.90;;;-144.05;88.38;125687.94;4977018;28;20035;-88
2022/09/10 04:40:00;;;;;;;9.52;4.80;;;14.50;99.90;;;-144.05;88.79;125687.94;4976884;28;20134;-86
2022/09/10 04:42:27;;;;;;;7.72;4.15;;;14.50;99.90;;;-144.05;88.64;125687.94;4978122;28;20066;-87
2022/09/10 04:44:53;;;;;;;7.35;4.75;;;14.50;99.90;;;-144.05;88.86;125687.94;4980168;28;20074;-87
2022/09/10 04:47:20;;;;;;;7.90;5.45;;;14.40;99.90;;;-144.05;89.11;125687.94;4978488;28;20105;-88
2022/09/10 04:49:45;;;;;;;8.95;5.80;;;14.40;99.90;;;-144.05;89.31;125687.94;4979209;28;20031;-89
2022/09/10 04:52:12;;;;;;;7.55;5.13;;;14.40;99.90;;;-144.05;89.25;125687.94;4979039;28;20054;-88
2022/09/10 04:54:38;;;;;;;8.75;5.78;;;14.40;99.90;;;-144.05;89.16;125687.94;4979299;28;20046;-87
2022/09/10 04:57:06;;;;;;;9.85;5.80;;;14.40;99.90;;;-144.05;89.06;125687.94;4979341;28;20442;-85
2022/09/10 04:59:33;;;;;;;11.57;5.57;;;14.40;99.90;;;-144.05;89.06;125687.94;4979812;28;20031;-86
2022/09/10 05:02:01;;;;;;;8.75;4.80;;;14.40;99.90;;;-144.05;89.12;125687.94;4994381;28;20134;-85
2022/09/10 05:04:27;;;;;;;8.23;5.55;;;14.40;99.90;;;-144.05;89.21;125687.94;4979304;28;20459;-85
2022/09/10 05:06:53;;;;;;;8.60;5.63;;;14.40;99.90;;;-144.05;89.18;125687.94;4984115;28;20070;-88
2022/09/10 05:09:19;;;;;;;10.70;5.97;;;14.50;99.90;;;-144.05;89.40;125687.94;4978867;28;20042;-88
2022/09/10 05:11:46;;;;;;;9.80;6.20;;;14.40;99.90;;;-144.05;89.67;125687.94;4979792;28;20034;-86
2022/09/10 05:14:13;;;;;;;10.75;6.43;;;14.40;99.90;;;-144.05;90.01;125687.94;4978724;28;20057;-87
2022/09/10 05:16:39;;;;;;;8.07;6.32;;;14.50;99.90;;;-144.05;89.74;125687.94;4978497;28;20031;-88
2022/09/10 05:19:05;;;;;;;10.48;6.40;;;14.50;99.90;;;-144.05;89.74;125687.94;4978147;28;20034;-88
2022/09/10 05:21:32;;;;;;;7.18;5.65;;;14.50;99.90;;;-144.05;89.58;125687.94;4977786;28;20027;-88
2022/09/10 05:23:59;;;;;;;8.65;6.05;;;14.60;99.90;;;-144.05;89.72;125687.94;4977639;28;20042;-86
2022/09/10 05:26:26;;;;;;;11.63;6.70;;;14.50;99.90;;;-144.05;89.47;125687.94;4978061;28;20100;-87
2022/09/10 05:28:52;;;;;;;11.25;6.18;;;14.50;99.90;;;-144.05;89.04;125687.94;4977449;28;20031;-87
2022/09/10 05:31:19;;;;;;;11.20;6.45;;;14.60;99.90;;;-144.05;89.15;125687.94;4978114;28;20394;-87
2022/09/10 05:33:45;;;;;;;10.45;6.35;;;14.70;99.90;;;-144.05;88.79;125687.94;4976718;28;20023;-88
2022/09/10 05:36:13;;;;;;;8.25;6.15;;;14.50;99.90;;;-144.05;88.84;125687.94;4976667;28;20035;-88
2022/09/10 05:38:39;;;;;;;9.43;6.03;;;14.60;99.90;;;-144.05;88.26;125687.94;4976262;28;20035;-89
2022/09/10 05:41:09;;;;;;;10.90;6.90;;;14.70;99.90;;;-144.05;88.12;125687.94;4975002;28;20027;-89
2022/09/10 05:43:35;;;;;;;13.88;6.65;;;14.70;99.90;;;-144.05;88.33;125687.94;4975441;28;20026;-88
2022/09/10 05:46:03;;;;;;;11.05;6.38;;;14.80;99.90;;;-144.05;87.93;125687.94;4977642;28;20053;-88
2022/09/10 05:48:30;;;;;;;9.70;5.82;;;14.80;99.90;;;-144.05;87.87;125687.94;4983549;28;20038;-89
2022/09/10 05:50:56;;;;;;;8.48;5.72;;;14.80;99.90;;;-144.05;87.49;125687.94;4979473;28;20027;-86
2022/09/10 05:53:22;;;;;;;10.82;6.95;;;14.90;99.90;;;-144.05;87.30;125687.94;4977115;28;20085;-87
2022/09/10 05:55:48;;;;;;;11.45;6.05;;;14.80;99.90;;;-144.05;87.25;125687.94;4976748;28;20117;-86
2022/09/10 05:58:15;;;;;;;11.57;5.63;;;14.90;99.90;;;-144.05;87.49;125687.94;4977072;28;20062;-88
2022/09/10 06:00:44;;;;;;;13.57;6.25;;;14.90;99.90;;;-144.05;87.95;125687.94;4975062;28;20030;-86
2022/09/10 06:03:11;;;;;;;10.05;5.68;;;14.80;99.90;;;-144.05;88.43;125687.94;4978409;28;20487;-86
2022/09/10 06:05:37;;;;;;;10.10;6.45;;;14.80;99.90;;;-144.05;88.34;125687.94;4976755;28;20189;-86
2022/09/10 06:08:03;;;;;;;11.32;5.97;;;14.80;99.90;;;-144.05;88.60;125687.94;4976514;28;20050;-87
2022/09/10 06:10:29;;;;;;;8.65;6.18;;;14.70;99.90;;;-144.05;88.90;125687.94;4977455;28;20030;-87
2022/09/10 06:12:55;;;;;;;8.13;6.15;;;14.70;99.90;;;-144.05;89.82;125687.94;4977699;28;20058;-88
2022/09/10 06:15:21;;;;;;;9.98;6.50;;;14.70;99.90;;;-144.05;89.64;125687.94;4976683;28;20039;-88
2022/09/10 06:17:49;;;;;;;11.55;6.78;;;14.60;99.90;;;-144.05;90.06;125687.94;4975517;28;20447;-89
2022/09/10 06:20:15;;;;;;;15.80;7.30;;;14.50;99.90;;;-144.05;91.08;125687.94;4977671;28;20034;-88
2022/09/10 06:22:41;;;;;;;9.20;6.85;;;14.50;99.90;;;-144.05;91.56;125687.94;4975992;28;20325;-88
2022/09/10 06:25:08;;;;;;;10.50;6.70;;;14.60;99.90;;;-144.05;91.13;125687.94;4975779;28;20509;-87
2022/09/10 06:27:34;;;;;;;14.00;6.85;;;14.50;99.90;;;-144.05;91.41;125687.94;4975938;28;20384;-88
2022/09/10 06:29:59;;;;;;;12.82;6.68;;;14.40;99.90;;;-144.05;91.50;125687.94;4975814;28;20081;-86
2022/09/10 06:32:26;;;;;;;14.02;7.47;;;14.50;99.90;;;-144.05;91.62;125687.94;4976575;28;20034;-87
2022/09/10 06:34:51;;;;;;;12.13;6.63;;;14.40;99.90;;;-144.05;91.98;125687.94;4976944;28;20126;-86
2022/09/10 06:37:17;;;;;;;13.25;7.63;;;14.40;99.90;;;-144.05;91.71;125687.94;4980023;28;20061;-88
2022/09/10 06:39:43;;;;;;;10.77;7.55;;;14.50;99.90;;;-144.05;91.96;125687.94;4980656;28;20166;-88
2022/09/10 06:42:09;;;;;;;12.00;7.70;;;14.50;99.90;;;-144.05;91.99;125687.94;4979524;28;20134;-89
2022/09/10 06:44:35;;;;;;;8.93;7.32;;;14.50;99.90;;;-144.05;91.68;125687.94;4980749;28;20030;-87
2022/09/10 06:47:01;;;;;;;14.70;8.40;;;14.60;99.90;;;-144.05;91.86;125687.94;4980529;28;20027;-87
2022/09/10 06:49:30;;;;;;;9.45;7.43;;;14.60;99.90;;;-144.05;91.87;125687.94;4981378;28;20023;-85
2022/09/10 06:51:56;;;;;;;13.43;7.10;;;14.60;99.90;;;-144.05;91.80;125687.94;4979187;28;20027;-87
2022/09/10 06:54:23;;;;;;;12.98;7.30;;;14.70;99.90;;;-144.05;91.68;125687.94;4979424;28;20026;-85
2022/09/10 06:56:49;;;;;;;11.73;7.75;;;14.70;99.90;;;-144.05;91.73;125687.94;4979127;28;20113;-86
2022/09/10 06:59:17;;;;;;;9.98;7.50;;;14.80;99.90;;;-144.05;91.20;125687.94;4978879;28;20027;-84
2022/09/10 07:01:45;;;;;;;11.55;6.82;;;14.90;99.90;;;-144.05;90.24;125687.94;4980720;28;20046;-87
2022/09/10 07:04:11;;;;;;;9.77;6.57;;;15.00;99.90;;;-144.05;90.07;125687.94;4981221;28;20027;-88
2022/09/10 07:06:37;;;;;;;11.57;6.07;;;15.10;99.90;;;-144.05;90.04;125687.94;4997010;28;20034;-87
2022/09/10 07:09:05;;;;;;;9.40;5.90;;;15.20;99.90;;;-144.05;89.60;125687.94;4981587;28;20498;-89
2022/09/10 07:11:31;;;;;;;9.65;5.65;;;15.30;99.90;;;-144.05;88.08;125687.94;4981286;28;20097;-90
2022/09/10 07:13:59;;;;;;;8.18;5.72;;;15.30;99.90;;;-144.05;88.36;125687.94;4980529;28;20031;-86
2022/09/10 07:16:27;;;;;;;10.43;6.30;;;15.30;99.90;;;-144.05;89.48;125687.94;4980732;28;20061;-89
2022/09/10 07:18:58;;;;;;;8.80;6.07;;;15.40;99.90;;;-144.05;88.83;125687.94;4978721;28;20027;-86
2022/09/10 07:21:27;;;;;;;9.40;5.43;;;15.30;99.90;;;-144.05;89.29;125687.94;4978820;28;20050;-87
2022/09/10 07:24:02;;;;;;;10.35;5.65;;;15.30;99.90;;;-144.05;90.14;125687.94;4979729;28;20027;-87
2022/09/10 07:26:29;;;;;;;11.27;5.77;;;15.20;99.90;;;-144.05;90.50;125687.94;4979503;28;20037;-86
2022/09/10 07:28:57;;;;;;;6.95;5.90;;;15.10;99.90;;;-144.05;90.93;125687.94;4978543;28;20027;-87
2022/09/10 07:31:33;;;;;;;9.13;6.30;;;15.00;99.90;;;-144.05;90.80;125687.94;4979440;28;20023;-88
2022/09/10 07:34:02;;;;;;;12.02;6.13;;;14.90;99.90;;;-144.05;91.17;125687.94;4978716;28;20060;-88
2022/09/10 07:36:30;;;;;;;12.27;6.85;;;15.00;99.90;;;-144.05;91.68;125687.94;4979786;28;20027;-88
2022/09/10 07:38:57;;;;;;;9.13;6.20;;;14.90;99.90;;;-144.05;91.76;125687.94;4980504;28;20035;-87
2022/09/10 07:41:28;;;;;;;11.32;7.25;;;14.90;99.90;;;-144.05;91.43;125687.94;4982515;28;20042;-86
2022/09/10 07:43:55;;;;;;;9.13;6.05;;;15.00;99.90;;;-144.05;91.03;125687.94;4987885;28;20034;-86
2022/09/10 07:46:24;;;;;;;13.15;6.60;;;14.90;99.90;;;-144.05;91.40;125687.94;4990288;28;20030;-87
2022/09/10 07:48:59;;;;;;;13.15;7.00;;;15.00;99.90;;;-144.05;91.37;125687.94;4989858;28;20022;-85
2022/09/10 07:51:29;;;;;;;13.20;8.07;;;15.00;99.90;;;-144.05;91.46;125687.94;4988901;28;20139;-90
2022/09/10 07:53:58;;;;;;;12.07;7.47;;;15.10;99.90;;;-144.05;90.99;125687.94;4987450;28;20387;-89
2022/09/10 07:56:25;;;;;;;12.23;7.43;;;15.30;99.90;;;-144.05;90.71;125687.94;4983909;28;20494;-87
2022/09/10 07:58:56;;;;;;;11.68;6.95;;;15.50;99.90;;;-144.05;89.51;125687.94;4984682;28;20292;-91
2022/09/10 08:01:22;;;;;;;11.00;6.50;;;15.60;99.90;;;-144.05;88.67;125687.94;4985501;28;20031;-88
2022/09/10 08:03:48;;;;;;;13.73;7.22;;;15.70;99.90;;;-144.05;87.98;125687.94;4981408;28;20054;-87
2022/09/10 08:06:14;;;;;;;8.98;6.20;;;15.90;99.90;;;-144.05;86.96;125687.94;4982038;28;20060;-89
2022/09/10 08:08:41;;;;;;;13.90;6.68;;;16.20;99.90;;;-144.05;86.22;125687.94;4980771;28;20042;-89
2022/09/10 08:11:16;;;;;;;7.95;5.85;;;16.50;99.90;;;-144.05;84.86;125687.94;4983413;28;20030;-86
2022/09/10 08:13:47;;;;;;;7.68;4.80;;;16.70;99.90;;;-144.05;82.69;125687.94;4982279;28;20066;-86
2022/09/10 08:16:19;;;;;;;7.85;4.00;;;16.90;99.90;;;-144.05;82.18;125687.94;4984112;28;20035;-88
2022/09/10 08:18:47;;;;;;;9.50;4.80;;;16.70;99.90;;;-144.05;83.71;125687.94;4981925;28;20088;-87
2022/09/10 08:21:15;;;;;;;7.45;4.22;;;16.60;99.90;;;-144.05;84.35;125687.94;4983012;28;20050;-88
2022/09/10 08:23:47;;;;;;;6.82;4.50;;;16.40;99.90;;;-144.05;83.59;125687.94;4981572;28;20031;-87
2022/09/10 08:26:13;;;;;;;5.00;4.30;;;16.30;99.90;;;-144.05;86.24;125687.94;4983193;28;20022;-87
2022/09/10 08:28:40;;;;;;;8.60;5.30;;;16.20;99.90;;;-144.05;86.12;125687.94;4983424;28;20081;-84
2022/09/10 08:31:11;;;;;;;8.60;5.28;;;16.20;99.90;;;-144.05;86.07;125687.94;4982736;28;20490;-88
2022/09/10 08:33:39;;;;;;;5.90;4.65;;;16.30;99.90;;;-144.05;85.86;125687.94;4983750;28;20054;-88
2022/09/10 08:36:10;;;;;;;7.25;4.78;;;16.40;99.90;;;-144.05;85.47;125687.94;4984005;28;20057;-87
2022/09/10 08:38:39;;;;;;;5.88;4.60;;;16.40;99.90;;;-144.05;84.41;125687.94;4983405;28;20403;-86
2022/09/10 08:41:37;;;;;;;6.60;4.63;;;16.50;99.90;;;-144.05;84.03;125687.94;4983533;28;20030;-89
2022/09/10 08:44:09;;;;;;;8.95;4.28;;;16.60;99.90;;;-144.05;84.61;125687.94;4985458;28;20033;-86
2022/09/10 08:47:03;;;;;;;10.77;4.97;;;16.80;99.90;;;-144.05;82.85;125687.94;4984093;28;20064;-92
2022/09/10 08:50:10;;;;;;;9.48;4.07;;;16.90;99.90;;;-144.05;82.04;125687.94;4987179;28;20034;-88
2022/09/10 08:52:47;;;;;;;;;;;16.90;99.90;;;-144.05;81.70;125687.94;4985966;28;20080;-86
2022/09/10 08:55:16;;;;;;;9.30;4.57;;;16.90;99.90;;;-144.05;82.54;125687.94;4988884;28;19991;-87
2022/09/10 08:58:10;;;;;;;5.22;3.38;;;16.90;99.90;;;-144.05;82.07;125687.94;4984435;28;20042;-90
2022/09/10 09:00:45;;;;;;;5.40;4.22;;;17.00;99.90;;;-144.05;81.55;125687.94;4986400;28;20563;-89
2022/09/10 09:03:49;;;;;;;6.90;4.30;;;17.10;99.90;;;-144.05;81.00;125687.94;4992915;28;20039;-86
2022/09/10 09:06:59;;;;;;;5.88;3.63;;;17.10;99.90;;;-144.05;80.14;125687.94;4996615;28;20069;-85
2022/09/10 09:09:25;;;;;;;7.63;4.45;;;17.30;99.90;;;-144.05;80.57;125687.94;4997426;28;20049;-87
2022/09/10 09:12:37;;;;;;;4.72;3.65;;;17.30;99.90;;;-144.05;80.02;125687.94;4984567;28;20078;-89
2022/09/10 09:15:36;;;;;;;5.93;3.85;;;17.40;99.90;;;-144.05;78.81;125687.94;4981048;28;20033;-89
2022/09/10 09:18:31;;;;;;;6.57;3.78;;;17.50;99.90;;;-144.05;78.55;125687.94;4971882;28;20096;-89
2022/09/10 09:21:16;;;;;;;5.07;4.03;;;17.40;99.90;;;-144.05;78.11;125687.94;4979559;28;20053;-87
2022/09/10 09:23:57;;;;;;;7.88;4.30;;;17.40;99.90;;;-144.05;79.25;125687.94;4981213;28;20046;-87
2022/09/10 09:26:35;;;;;;;5.03;4.25;;;17.30;99.90;;;-144.05;79.50;125687.94;4982398;28;20019;-90
2022/09/10 09:30:16;;;;;;;5.75;3.88;;;17.30;99.90;;;-144.05;79.97;125687.94;4981256;28;20022;-88
2022/09/10 09:32:46;;;;;;;6.18;4.40;;;17.20;99.90;;;-144.05;81.21;125687.94;4889741;28;20034;-86
2022/09/10 09:35:45;;;;;;;6.93;4.93;;;17.30;99.90;;;-144.05;82.21;125687.94;4981524;28;20027;-87
2022/09/10 09:38:42;;;;;;;5.80;4.60;;;17.30;99.90;;;-144.05;81.47;125687.94;4981512;28;20067;-87
2022/09/10 09:41:36;;;;;;;7.68;5.00;;;17.50;99.90;;;-144.05;80.47;125687.94;4982210;28;20058;-86
2022/09/10 09:44:26;;;;;;;7.22;4.75;;;17.70;99.90;;;-144.05;78.23;125687.94;4983619;28;20030;-88
2022/09/10 09:46:52;;;;;;;8.02;4.35;;;17.80;99.90;;;-144.05;79.25;125687.94;4981837;28;20058;-89
2022/09/10 09:49:18;;;;;;;6.07;4.22;;;17.80;99.90;;;-144.05;77.50;125687.94;4980893;28;20030;-85
2022/09/10 09:51:49;;;;;;;7.22;4.00;;;17.60;99.90;;;-144.05;78.99;125687.94;4980891;28;20158;-88
2022/09/10 09:54:26;;;;;;;7.30;4.80;;;17.60;99.90;;;-144.05;78.59;125687.94;4981530;28;20027;-89
2022/09/10 09:56:58;;;;;;;7.38;4.60;;;17.60;99.90;;;-144.05;79.69;125687.94;4982620;28;20038;-89
2022/09/10 09:59:36;;;;;;;10.80;5.10;;;17.60;99.90;;;-144.05;77.10;125687.94;4981872;28;20031;-87
2022/09/10 10:02:29;;;;;;;6.90;4.80;;;17.50;99.90;;;-144.05;78.15;125687.94;4981613;28;20033;-88
2022/09/10 10:05:24;;;;;;;7.22;4.78;;;17.30;99.90;;;-144.05;77.68;125687.94;4980328;28;20023;-86
2022/09/10 10:07:51;;;;;;;7.80;4.88;;;17.20;99.90;;;-144.05;78.51;125687.94;4980424;28;20027;-87
2022/09/10 10:10:27;;;;;;;7.63;4.82;;;17.10;99.90;;;-144.05;78.51;125687.94;4982386;28;20037;-87
2022/09/10 10:12:54;;;;;;;;;;;17.00;99.90;;;-144.05;78.86;125687.94;4986734;28;20070;-89
2022/09/10 10:15:41;;;;;;;7.97;4.95;;;17.10;99.90;;;-144.05;78.95;125687.94;4986636;28;19910;-88
2022/09/10 10:18:22;;;;;;;7.30;4.78;;;17.00;99.90;;;-144.05;78.11;125687.94;4985598;28;20556;-87
2022/09/10 10:21:31;;;;;;;8.02;5.10;;;17.10;99.90;;;-144.05;78.50;125687.94;4986796;28;20030;-87